sensor_id;sensor_type;location;lat;lon;timestamp;P1;durP1;ratioP1;P2;durP2;ratioP2
27983;SDS011;15317;50.360;8.726;2023-12-20T00:03:38;14.97;;;12.90;;
27983;SDS011;15317;50.360;8.726;2023-12-20T00:08:43;18.33;;;14.23;;
27983;SDS011;15317;50.360;8.726;2023-12-20T00:13:48;17.40;;;14.00;;
27983;SDS011;15317;50.360;8.726;2023-12-20T00:18:52;19.43;;;14.83;;
27983;SDS011;15317;50.360;8.726;2023-12-20T00:23:56;19.20;;;15.23;;
27983;SDS011;15317;50.360;8.726;2023-12-20T00:29:01;18.60;;;14.70;;
27983;SDS011;15317;50.360;8.726;2023-12-20T00:34:04;22.70;;;16.30;;
27983;SDS011;15317;50.360;8.726;2023-12-20T00:39:08;22.70;;;17.03;;
27983;SDS011;15317;50.360;8.726;2023-12-20T00:44:12;22.47;;;16.43;;
27983;SDS011;15317;50.360;8.726;2023-12-20T00:49:15;23.13;;;16.63;;
27983;SDS011;15317;50.360;8.726;2023-12-20T00:54:18;19.83;;;15.57;;
27983;SDS011;15317;50.360;8.726;2023-12-20T00:59:23;19.27;;;14.47;;
27983;SDS011;15317;50.360;8.726;2023-12-20T01:04:26;21.73;;;16.57;;
27983;SDS011;15317;50.360;8.726;2023-12-20T01:09:29;20.03;;;15.70;;
27983;SDS011;15317;50.360;8.726;2023-12-20T01:14:34;21.33;;;16.07;;
27983;SDS011;15317;50.360;8.726;2023-12-20T01:19:37;21.40;;;15.97;;
27983;SDS011;15317;50.360;8.726;2023-12-20T01:24:41;19.10;;;15.93;;
27983;SDS011;15317;50.360;8.726;2023-12-20T01:29:46;19.40;;;16.40;;
27983;SDS011;15317;50.360;8.726;2023-12-20T01:34:50;20.90;;;16.17;;
27983;SDS011;15317;50.360;8.726;2023-12-20T01:39:53;20.17;;;15.83;;
27983;SDS011;15317;50.360;8.726;2023-12-20T01:44:58;20.23;;;15.37;;
27983;SDS011;15317;50.360;8.726;2023-12-20T01:50:02;18.77;;;15.20;;
27983;SDS011;15317;50.360;8.726;2023-12-20T01:55:06;18.60;;;15.43;;
27983;SDS011;15317;50.360;8.726;2023-12-20T02:00:17;18.20;;;15.03;;
27983;SDS011;15317;50.360;8.726;2023-12-20T02:05:25;17.07;;;14.60;;
27983;SDS011;15317;50.360;8.726;2023-12-20T02:10:29;17.40;;;14.90;;
27983;SDS011;15317;50.360;8.726;2023-12-20T02:15:34;17.17;;;15.10;;
27983;SDS011;15317;50.360;8.726;2023-12-20T02:20:38;18.97;;;15.40;;
27983;SDS011;15317;50.360;8.726;2023-12-20T02:30:52;17.97;;;15.97;;
27983;SDS011;15317;50.360;8.726;2023-12-20T02:35:56;19.27;;;15.67;;
27983;SDS011;15317;50.360;8.726;2023-12-20T02:40:59;19.67;;;16.63;;
27983;SDS011;15317;50.360;8.726;2023-12-20T02:46:04;19.43;;;16.33;;
27983;SDS011;15317;50.360;8.726;2023-12-20T02:51:07;20.13;;;17.20;;
27983;SDS011;15317;50.360;8.726;2023-12-20T02:56:10;21.70;;;17.83;;
27983;SDS011;15317;50.360;8.726;2023-12-20T03:01:17;19.53;;;16.13;;
27983;SDS011;15317;50.360;8.726;2023-12-20T03:06:22;18.53;;;16.33;;
27983;SDS011;15317;50.360;8.726;2023-12-20T03:11:26;22.30;;;16.33;;
27983;SDS011;15317;50.360;8.726;2023-12-20T03:16:30;21.70;;;17.33;;
27983;SDS011;15317;50.360;8.726;2023-12-20T03:21:37;15.53;;;12.67;;
27983;SDS011;15317;50.360;8.726;2023-12-20T03:26:41;18.53;;;14.40;;
27983;SDS011;15317;50.360;8.726;2023-12-20T03:31:46;18.37;;;14.23;;
27983;SDS011;15317;50.360;8.726;2023-12-20T03:36:49;7.57;;;5.50;;
27983;SDS011;15317;50.360;8.726;2023-12-20T03:41:53;5.03;;;4.47;;
27983;SDS011;15317;50.360;8.726;2023-12-20T03:46:57;4.10;;;3.70;;
27983;SDS011;15317;50.360;8.726;2023-12-20T03:52:00;3.57;;;3.27;;
27983;SDS011;15317;50.360;8.726;2023-12-20T03:57:05;4.50;;;3.40;;
27983;SDS011;15317;50.360;8.726;2023-12-20T04:02:09;4.03;;;3.50;;
27983;SDS011;15317;50.360;8.726;2023-12-20T04:07:12;3.53;;;3.23;;
27983;SDS011;15317;50.360;8.726;2023-12-20T04:12:17;5.17;;;3.00;;
27983;SDS011;15317;50.360;8.726;2023-12-20T04:17:21;3.20;;;3.00;;
27983;SDS011;15317;50.360;8.726;2023-12-20T04:22:25;3.90;;;3.60;;
27983;SDS011;15317;50.360;8.726;2023-12-20T04:27:28;4.37;;;3.90;;
27983;SDS011;15317;50.360;8.726;2023-12-20T04:32:33;4.20;;;3.90;;
27983;SDS011;15317;50.360;8.726;2023-12-20T04:37:37;6.43;;;4.30;;
27983;SDS011;15317;50.360;8.726;2023-12-20T04:42:40;5.83;;;5.00;;
27983;SDS011;15317;50.360;8.726;2023-12-20T04:47:45;5.93;;;5.03;;
27983;SDS011;15317;50.360;8.726;2023-12-20T04:52:49;9.57;;;6.93;;
27983;SDS011;15317;50.360;8.726;2023-12-20T04:57:54;14.90;;;8.77;;
27983;SDS011;15317;50.360;8.726;2023-12-20T05:02:59;8.77;;;7.87;;
27983;SDS011;15317;50.360;8.726;2023-12-20T05:08:02;10.80;;;7.10;;
27983;SDS011;15317;50.360;8.726;2023-12-20T05:13:06;9.17;;;6.83;;
27983;SDS011;15317;50.360;8.726;2023-12-20T05:18:11;8.07;;;5.67;;
27983;SDS011;15317;50.360;8.726;2023-12-20T05:23:15;5.10;;;4.30;;
27983;SDS011;15317;50.360;8.726;2023-12-20T05:28:19;6.50;;;3.80;;
27983;SDS011;15317;50.360;8.726;2023-12-20T05:33:24;9.37;;;4.10;;
27983;SDS011;15317;50.360;8.726;2023-12-20T05:38:28;5.30;;;3.70;;
27983;SDS011;15317;50.360;8.726;2023-12-20T05:43:31;5.77;;;3.80;;
27983;SDS011;15317;50.360;8.726;2023-12-20T05:48:35;4.60;;;3.50;;
27983;SDS011;15317;50.360;8.726;2023-12-20T05:53:39;6.97;;;3.53;;
27983;SDS011;15317;50.360;8.726;2023-12-20T05:58:42;7.57;;;3.10;;
27983;SDS011;15317;50.360;8.726;2023-12-20T06:03:47;5.97;;;3.20;;
27983;SDS011;15317;50.360;8.726;2023-12-20T06:08:50;7.90;;;3.03;;
27983;SDS011;15317;50.360;8.726;2023-12-20T06:13:53;6.00;;;3.17;;
27983;SDS011;15317;50.360;8.726;2023-12-20T06:18:58;10.87;;;3.17;;
27983;SDS011;15317;50.360;8.726;2023-12-20T06:24:01;7.30;;;3.23;;
27983;SDS011;15317;50.360;8.726;2023-12-20T06:29:04;9.43;;;2.97;;
27983;SDS011;15317;50.360;8.726;2023-12-20T06:34:09;6.33;;;3.10;;
27983;SDS011;15317;50.360;8.726;2023-12-20T06:39:13;6.33;;;2.90;;
27983;SDS011;15317;50.360;8.726;2023-12-20T06:44:16;7.57;;;3.03;;
27983;SDS011;15317;50.360;8.726;2023-12-20T06:49:21;7.43;;;2.60;;
27983;SDS011;15317;50.360;8.726;2023-12-20T06:54:24;9.57;;;2.63;;
27983;SDS011;15317;50.360;8.726;2023-12-20T06:59:28;7.43;;;2.87;;
27983;SDS011;15317;50.360;8.726;2023-12-20T07:04:32;7.80;;;3.00;;
27983;SDS011;15317;50.360;8.726;2023-12-20T07:09:36;8.87;;;2.90;;
27983;SDS011;15317;50.360;8.726;2023-12-20T07:14:40;4.87;;;2.57;;
27983;SDS011;15317;50.360;8.726;2023-12-20T07:19:45;8.37;;;3.13;;
27983;SDS011;15317;50.360;8.726;2023-12-20T07:24:49;9.13;;;2.90;;
27983;SDS011;15317;50.360;8.726;2023-12-20T07:29:54;9.43;;;2.83;;
27983;SDS011;15317;50.360;8.726;2023-12-20T07:34:59;8.73;;;3.20;;
27983;SDS011;15317;50.360;8.726;2023-12-20T07:40:03;9.40;;;3.13;;
27983;SDS011;15317;50.360;8.726;2023-12-20T07:45:06;7.50;;;2.80;;
27983;SDS011;15317;50.360;8.726;2023-12-20T07:50:12;7.97;;;2.90;;
27983;SDS011;15317;50.360;8.726;2023-12-20T07:55:15;7.70;;;2.93;;
27983;SDS011;15317;50.360;8.726;2023-12-20T08:00:19;6.53;;;3.03;;
27983;SDS011;15317;50.360;8.726;2023-12-20T08:05:24;9.20;;;3.57;;
27983;SDS011;15317;50.360;8.726;2023-12-20T08:10:27;7.97;;;3.60;;
27983;SDS011;15317;50.360;8.726;2023-12-20T08:15:31;7.57;;;4.37;;
27983;SDS011;15317;50.360;8.726;2023-12-20T08:20:36;9.30;;;4.23;;
27983;SDS011;15317;50.360;8.726;2023-12-20T08:25:42;9.40;;;3.60;;
27983;SDS011;15317;50.360;8.726;2023-12-20T08:30:45;10.63;;;3.50;;
27983;SDS011;15317;50.360;8.726;2023-12-20T08:35:50;6.77;;;3.07;;
27983;SDS011;15317;50.360;8.726;2023-12-20T08:40:54;8.20;;;3.13;;
27983;SDS011;15317;50.360;8.726;2023-12-20T08:45:57;7.00;;;2.93;;
27983;SDS011;15317;50.360;8.726;2023-12-20T08:51:02;6.83;;;2.53;;
27983;SDS011;15317;50.360;8.726;2023-12-20T08:56:05;10.47;;;2.93;;
27983;SDS011;15317;50.360;8.726;2023-12-20T09:01:09;7.60;;;2.50;;
27983;SDS011;15317;50.360;8.726;2023-12-20T09:06:14;4.97;;;2.87;;
27983;SDS011;15317;50.360;8.726;2023-12-20T09:11:17;9.27;;;2.40;;
27983;SDS011;15317;50.360;8.726;2023-12-20T09:16:21;8.43;;;2.50;;
27983;SDS011;15317;50.360;8.726;2023-12-20T09:21:26;8.60;;;2.50;;
27983;SDS011;15317;50.360;8.726;2023-12-20T09:26:29;6.67;;;2.47;;
27983;SDS011;15317;50.360;8.726;2023-12-20T09:31:32;5.27;;;2.20;;
27983;SDS011;15317;50.360;8.726;2023-12-20T09:36:37;7.43;;;2.30;;
27983;SDS011;15317;50.360;8.726;2023-12-20T09:41:45;5.07;;;2.50;;
27983;SDS011;15317;50.360;8.726;2023-12-20T09:46:52;7.93;;;2.57;;
27983;SDS011;15317;50.360;8.726;2023-12-20T09:51:58;4.30;;;2.17;;
27983;SDS011;15317;50.360;8.726;2023-12-20T09:57:04;7.07;;;2.30;;
27983;SDS011;15317;50.360;8.726;2023-12-20T10:02:07;8.10;;;2.40;;
27983;SDS011;15317;50.360;8.726;2023-12-20T10:07:17;4.50;;;1.80;;
27983;SDS011;15317;50.360;8.726;2023-12-20T10:12:22;6.80;;;2.77;;
27983;SDS011;15317;50.360;8.726;2023-12-20T10:17:26;6.13;;;1.90;;
27983;SDS011;15317;50.360;8.726;2023-12-20T10:22:33;4.97;;;2.27;;
27983;SDS011;15317;50.360;8.726;2023-12-20T10:27:37;6.63;;;2.17;;
27983;SDS011;15317;50.360;8.726;2023-12-20T10:32:40;4.73;;;2.30;;
27983;SDS011;15317;50.360;8.726;2023-12-20T10:37:45;6.93;;;2.30;;
27983;SDS011;15317;50.360;8.726;2023-12-20T10:42:49;4.53;;;2.10;;
27983;SDS011;15317;50.360;8.726;2023-12-20T10:47:54;5.90;;;2.33;;
27983;SDS011;15317;50.360;8.726;2023-12-20T10:53:00;5.03;;;2.03;;
27983;SDS011;15317;50.360;8.726;2023-12-20T10:58:06;6.20;;;2.30;;
27983;SDS011;15317;50.360;8.726;2023-12-20T11:03:11;6.57;;;2.10;;
27983;SDS011;15317;50.360;8.726;2023-12-20T11:08:17;5.37;;;2.20;;
27983;SDS011;15317;50.360;8.726;2023-12-20T11:13:35;5.30;;;2.00;;
27983;SDS011;15317;50.360;8.726;2023-12-20T11:18:44;4.60;;;2.03;;
27983;SDS011;15317;50.360;8.726;2023-12-20T11:23:49;7.40;;;2.50;;
27983;SDS011;15317;50.360;8.726;2023-12-20T11:28:52;5.77;;;2.10;;
27983;SDS011;15317;50.360;8.726;2023-12-20T11:33:56;9.20;;;2.20;;
27983;SDS011;15317;50.360;8.726;2023-12-20T11:39:19;8.23;;;2.30;;
27983;SDS011;15317;50.360;8.726;2023-12-20T11:44:25;6.27;;;2.70;;
27983;SDS011;15317;50.360;8.726;2023-12-20T11:49:28;6.10;;;2.23;;
27983;SDS011;15317;50.360;8.726;2023-12-20T11:54:34;6.53;;;2.83;;
27983;SDS011;15317;50.360;8.726;2023-12-20T11:59:37;5.23;;;2.30;;
27983;SDS011;15317;50.360;8.726;2023-12-20T12:04:41;5.83;;;2.33;;
27983;SDS011;15317;50.360;8.726;2023-12-20T12:09:46;5.57;;;2.60;;
27983;SDS011;15317;50.360;8.726;2023-12-20T12:14:49;3.80;;;2.23;;
27983;SDS011;15317;50.360;8.726;2023-12-20T12:20:01;5.20;;;2.40;;
27983;SDS011;15317;50.360;8.726;2023-12-20T12:25:12;5.53;;;2.40;;
27983;SDS011;15317;50.360;8.726;2023-12-20T12:30:16;7.40;;;2.30;;
27983;SDS011;15317;50.360;8.726;2023-12-20T12:35:20;5.40;;;2.03;;
27983;SDS011;15317;50.360;8.726;2023-12-20T12:40:26;4.23;;;2.30;;
27983;SDS011;15317;50.360;8.726;2023-12-20T12:45:29;4.67;;;2.20;;
27983;SDS011;15317;50.360;8.726;2023-12-20T12:50:32;5.27;;;2.13;;
27983;SDS011;15317;50.360;8.726;2023-12-20T12:55:37;7.13;;;2.23;;
27983;SDS011;15317;50.360;8.726;2023-12-20T13:00:40;4.93;;;2.30;;
27983;SDS011;15317;50.360;8.726;2023-12-20T13:05:44;5.50;;;2.60;;
27983;SDS011;15317;50.360;8.726;2023-12-20T13:10:50;4.00;;;2.10;;
27983;SDS011;15317;50.360;8.726;2023-12-20T13:15:53;4.87;;;2.20;;
27983;SDS011;15317;50.360;8.726;2023-12-20T13:20:57;3.97;;;1.97;;
27983;SDS011;15317;50.360;8.726;2023-12-20T13:26:01;3.13;;;2.10;;
27983;SDS011;15317;50.360;8.726;2023-12-20T13:31:05;5.10;;;2.27;;
27983;SDS011;15317;50.360;8.726;2023-12-20T13:36:08;4.40;;;2.20;;
27983;SDS011;15317;50.360;8.726;2023-12-20T13:41:13;6.47;;;2.60;;
27983;SDS011;15317;50.360;8.726;2023-12-20T13:46:16;4.27;;;2.40;;
27983;SDS011;15317;50.360;8.726;2023-12-20T13:51:19;7.43;;;2.50;;
27983;SDS011;15317;50.360;8.726;2023-12-20T13:56:24;7.40;;;2.50;;
27983;SDS011;15317;50.360;8.726;2023-12-20T14:01:28;5.00;;;2.70;;
27983;SDS011;15317;50.360;8.726;2023-12-20T14:06:32;6.00;;;2.93;;
27983;SDS011;15317;50.360;8.726;2023-12-20T14:11:37;5.80;;;2.80;;
27983;SDS011;15317;50.360;8.726;2023-12-20T14:16:42;6.93;;;3.57;;
27983;SDS011;15317;50.360;8.726;2023-12-20T14:21:46;4.13;;;2.63;;
27983;SDS011;15317;50.360;8.726;2023-12-20T14:26:51;4.93;;;2.50;;
27983;SDS011;15317;50.360;8.726;2023-12-20T14:31:54;7.20;;;3.00;;
27983;SDS011;15317;50.360;8.726;2023-12-20T14:36:58;4.97;;;2.73;;
27983;SDS011;15317;50.360;8.726;2023-12-20T14:42:02;6.37;;;2.97;;
27983;SDS011;15317;50.360;8.726;2023-12-20T14:47:06;4.80;;;2.30;;
27983;SDS011;15317;50.360;8.726;2023-12-20T14:52:09;7.07;;;2.80;;
27983;SDS011;15317;50.360;8.726;2023-12-20T14:57:15;4.13;;;2.43;;
27983;SDS011;15317;50.360;8.726;2023-12-20T15:02:19;4.80;;;2.27;;
27983;SDS011;15317;50.360;8.726;2023-12-20T15:07:22;5.23;;;2.60;;
27983;SDS011;15317;50.360;8.726;2023-12-20T15:12:27;5.20;;;2.73;;
27983;SDS011;15317;50.360;8.726;2023-12-20T15:17:30;4.37;;;2.50;;
27983;SDS011;15317;50.360;8.726;2023-12-20T15:22:33;7.67;;;2.50;;
27983;SDS011;15317;50.360;8.726;2023-12-20T15:27:38;5.00;;;2.10;;
27983;SDS011;15317;50.360;8.726;2023-12-20T15:32:41;5.97;;;2.33;;
27983;SDS011;15317;50.360;8.726;2023-12-20T15:37:45;3.90;;;2.07;;
27983;SDS011;15317;50.360;8.726;2023-12-20T15:42:50;3.23;;;1.73;;
27983;SDS011;15317;50.360;8.726;2023-12-20T15:47:53;4.30;;;1.80;;
27983;SDS011;15317;50.360;8.726;2023-12-20T15:52:57;4.93;;;2.30;;
27983;SDS011;15317;50.360;8.726;2023-12-20T15:58:01;3.60;;;1.73;;
27983;SDS011;15317;50.360;8.726;2023-12-20T16:03:05;4.03;;;1.80;;
27983;SDS011;15317;50.360;8.726;2023-12-20T16:08:24;3.30;;;1.60;;
27983;SDS011;15317;50.360;8.726;2023-12-20T16:13:29;5.20;;;1.60;;
27983;SDS011;15317;50.360;8.726;2023-12-20T16:18:32;3.33;;;1.67;;
27983;SDS011;15317;50.360;8.726;2023-12-20T16:23:37;3.13;;;1.70;;
27983;SDS011;15317;50.360;8.726;2023-12-20T16:28:42;4.37;;;1.63;;
27983;SDS011;15317;50.360;8.726;2023-12-20T16:33:45;5.03;;;1.87;;
27983;SDS011;15317;50.360;8.726;2023-12-20T16:38:48;3.97;;;1.70;;
27983;SDS011;15317;50.360;8.726;2023-12-20T16:43:53;7.50;;;2.37;;
27983;SDS011;15317;50.360;8.726;2023-12-20T16:48:56;4.27;;;1.60;;
27983;SDS011;15317;50.360;8.726;2023-12-20T16:53:59;3.20;;;1.50;;
27983;SDS011;15317;50.360;8.726;2023-12-20T16:59:04;3.73;;;1.77;;
27983;SDS011;15317;50.360;8.726;2023-12-20T17:04:07;2.00;;;1.43;;
27983;SDS011;15317;50.360;8.726;2023-12-20T17:09:11;3.00;;;1.60;;
27983;SDS011;15317;50.360;8.726;2023-12-20T17:14:15;2.97;;;1.63;;
27983;SDS011;15317;50.360;8.726;2023-12-20T17:19:19;4.13;;;1.60;;
27983;SDS011;15317;50.360;8.726;2023-12-20T17:24:22;3.63;;;1.70;;
27983;SDS011;15317;50.360;8.726;2023-12-20T17:29:27;5.20;;;1.70;;
27983;SDS011;15317;50.360;8.726;2023-12-20T17:34:30;3.23;;;1.77;;
27983;SDS011;15317;50.360;8.726;2023-12-20T17:39:33;4.13;;;1.70;;
27983;SDS011;15317;50.360;8.726;2023-12-20T17:44:39;2.57;;;1.60;;
27983;SDS011;15317;50.360;8.726;2023-12-20T17:49:42;2.83;;;1.57;;
27983;SDS011;15317;50.360;8.726;2023-12-20T17:54:45;4.10;;;1.57;;
27983;SDS011;15317;50.360;8.726;2023-12-20T17:59:50;3.43;;;1.43;;
27983;SDS011;15317;50.360;8.726;2023-12-20T18:04:53;3.30;;;1.60;;
27983;SDS011;15317;50.360;8.726;2023-12-20T18:09:56;2.83;;;1.60;;
27983;SDS011;15317;50.360;8.726;2023-12-20T18:15:01;2.40;;;1.57;;
27983;SDS011;15317;50.360;8.726;2023-12-20T18:20:05;3.73;;;1.43;;
27983;SDS011;15317;50.360;8.726;2023-12-20T18:25:09;4.03;;;1.77;;
27983;SDS011;15317;50.360;8.726;2023-12-20T18:30:14;3.70;;;1.80;;
27983;SDS011;15317;50.360;8.726;2023-12-20T18:35:18;4.03;;;1.57;;
27983;SDS011;15317;50.360;8.726;2023-12-20T18:40:22;3.10;;;1.57;;
27983;SDS011;15317;50.360;8.726;2023-12-20T18:45:30;3.57;;;1.53;;
27983;SDS011;15317;50.360;8.726;2023-12-20T18:50:33;3.67;;;1.67;;
27983;SDS011;15317;50.360;8.726;2023-12-20T18:55:36;2.70;;;1.57;;
27983;SDS011;15317;50.360;8.726;2023-12-20T19:00:41;1.73;;;1.50;;
27983;SDS011;15317;50.360;8.726;2023-12-20T19:05:44;2.63;;;1.43;;
27983;SDS011;15317;50.360;8.726;2023-12-20T19:10:47;3.83;;;1.60;;
27983;SDS011;15317;50.360;8.726;2023-12-20T19:15:52;1.90;;;1.30;;
27983;SDS011;15317;50.360;8.726;2023-12-20T19:20:55;3.63;;;1.90;;
27983;SDS011;15317;50.360;8.726;2023-12-20T19:25:58;2.77;;;1.50;;
27983;SDS011;15317;50.360;8.726;2023-12-20T19:31:05;2.47;;;1.70;;
27983;SDS011;15317;50.360;8.726;2023-12-20T19:36:11;2.93;;;1.53;;
27983;SDS011;15317;50.360;8.726;2023-12-20T19:41:16;2.07;;;1.60;;
27983;SDS011;15317;50.360;8.726;2023-12-20T19:46:21;2.27;;;1.40;;
27983;SDS011;15317;50.360;8.726;2023-12-20T19:51:24;3.20;;;1.70;;
27983;SDS011;15317;50.360;8.726;2023-12-20T19:56:27;2.83;;;1.70;;
27983;SDS011;15317;50.360;8.726;2023-12-20T20:01:32;2.20;;;1.53;;
27983;SDS011;15317;50.360;8.726;2023-12-20T20:06:37;3.33;;;1.60;;
27983;SDS011;15317;50.360;8.726;2023-12-20T20:11:40;3.60;;;1.40;;
27983;SDS011;15317;50.360;8.726;2023-12-20T20:16:45;2.77;;;1.30;;
27983;SDS011;15317;50.360;8.726;2023-12-20T20:21:50;4.23;;;1.50;;
27983;SDS011;15317;50.360;8.726;2023-12-20T20:26:53;3.80;;;1.77;;
27983;SDS011;15317;50.360;8.726;2023-12-20T20:31:58;4.40;;;2.40;;
27983;SDS011;15317;50.360;8.726;2023-12-20T20:37:02;4.57;;;2.60;;
27983;SDS011;15317;50.360;8.726;2023-12-20T20:42:05;5.20;;;2.77;;
27983;SDS011;15317;50.360;8.726;2023-12-20T20:47:09;5.37;;;3.90;;
27983;SDS011;15317;50.360;8.726;2023-12-20T20:52:13;5.93;;;3.50;;
27983;SDS011;15317;50.360;8.726;2023-12-20T20:57:17;6.70;;;4.17;;
27983;SDS011;15317;50.360;8.726;2023-12-20T21:02:21;6.70;;;4.63;;
27983;SDS011;15317;50.360;8.726;2023-12-20T21:07:26;9.27;;;4.73;;
27983;SDS011;15317;50.360;8.726;2023-12-20T21:12:29;7.47;;;4.63;;
27983;SDS011;15317;50.360;8.726;2023-12-20T21:17:34;8.10;;;5.57;;
27983;SDS011;15317;50.360;8.726;2023-12-20T21:22:37;7.43;;;5.20;;
27983;SDS011;15317;50.360;8.726;2023-12-20T21:27:42;5.93;;;5.17;;
27983;SDS011;15317;50.360;8.726;2023-12-20T21:32:47;7.97;;;5.13;;
27983;SDS011;15317;50.360;8.726;2023-12-20T21:37:50;8.67;;;5.20;;
27983;SDS011;15317;50.360;8.726;2023-12-20T21:42:54;8.57;;;6.03;;
27983;SDS011;15317;50.360;8.726;2023-12-20T21:47:59;7.37;;;5.83;;
27983;SDS011;15317;50.360;8.726;2023-12-20T21:53:03;7.80;;;5.37;;
27983;SDS011;15317;50.360;8.726;2023-12-20T21:58:11;6.60;;;5.33;;
27983;SDS011;15317;50.360;8.726;2023-12-20T22:03:16;8.47;;;5.50;;
27983;SDS011;15317;50.360;8.726;2023-12-20T22:08:20;6.83;;;5.30;;
27983;SDS011;15317;50.360;8.726;2023-12-20T22:13:23;6.13;;;5.03;;
27983;SDS011;15317;50.360;8.726;2023-12-20T22:18:29;5.77;;;4.90;;
27983;SDS011;15317;50.360;8.726;2023-12-20T22:23:32;6.90;;;4.90;;
27983;SDS011;15317;50.360;8.726;2023-12-20T22:28:35;8.07;;;5.30;;
27983;SDS011;15317;50.360;8.726;2023-12-20T22:33:40;6.73;;;5.70;;
27983;SDS011;15317;50.360;8.726;2023-12-20T22:38:43;8.30;;;6.13;;
27983;SDS011;15317;50.360;8.726;2023-12-20T22:43:46;7.20;;;5.97;;
27983;SDS011;15317;50.360;8.726;2023-12-20T22:48:52;6.90;;;5.97;;
27983;SDS011;15317;50.360;8.726;2023-12-20T22:53:55;5.87;;;5.30;;
27983;SDS011;15317;50.360;8.726;2023-12-20T22:58:59;9.07;;;5.77;;
27983;SDS011;15317;50.360;8.726;2023-12-20T23:04:04;6.27;;;5.23;;
27983;SDS011;15317;50.360;8.726;2023-12-20T23:09:07;6.27;;;5.67;;
27983;SDS011;15317;50.360;8.726;2023-12-20T23:14:11;8.47;;;7.60;;
27983;SDS011;15317;50.360;8.726;2023-12-20T23:19:19;9.67;;;7.47;;
27983;SDS011;15317;50.360;8.726;2023-12-20T23:24:22;8.53;;;7.73;;
27983;SDS011;15317;50.360;8.726;2023-12-20T23:29:27;9.13;;;8.23;;
27983;SDS011;15317;50.360;8.726;2023-12-20T23:34:31;8.17;;;7.33;;
27983;SDS011;15317;50.360;8.726;2023-12-20T23:39:34;9.53;;;7.20;;
27983;SDS011;15317;50.360;8.726;2023-12-20T23:44:37;7.93;;;7.10;;
27983;SDS011;15317;50.360;8.726;2023-12-20T23:49:42;8.27;;;7.00;;
27983;SDS011;15317;50.360;8.726;2023-12-20T23:54:45;6.50;;;6.00;;
27983;SDS011;15317;50.360;8.726;2023-12-20T23:59:50;7.20;;;6.50;;
